Chelsea, Vermont
Current Conditions -  °F | °C
As of 12:51 PM on Saturday 25 Oct 2014 (Local Time) from KMPV Reporting Station
Clear Clear  
Wind Chill: 55°   Ceiling: Unl
Heat Index: 55°   Visibility: 10mi
Dew Point: 38°   Wind: 0mph
Humidity: 53%   Direction: NA
Pressure: 29.69"   Gusts: NA
Location:  43.99°N, 72.45°W
Report Text: KMPV 251651Z AUTO 00000KT 10SM CLR 13/03 A2969 RMK AO2 SLP060 T01280033 $
Loading
Personal Weather Stations






























Interactive Weather Map
Tropical Storm Tracking
New forecast layout! Learn more

10-Day Weather Forecast

Advertisements
Track Severe Weather on mobile